Piney, Canada
Current Conditions -  °F | °C
As of 9:14 AM on Sunday 21 Dec 2014 (Local Time) from KROX Reporting Station
Haze Haze  
Wind Chill: 20°   Ceiling: 1000
Heat Index: 30°   Visibility: 4mi
Dew Point: 27°   Wind: 13mph
Humidity: 86%   Direction: 170°S
Pressure: 29.7"   Gusts: NA
Location:  49.07°N, 95.97°W
Report Text: KROX 211514Z AUTO 17011KT 4SM BR OVC010 M01/M03 A2970 RMK AO2
Loading
Personal Weather Stations






























Interactive Weather Map New forecast layout! Learn more

10-Day Weather Forecast

Advertisements
Track Severe Weather on mobile